Time;durP1;ratioP1;P1;durP2;ratioP2;P2;SDS_P1;SDS_P2;PMS_P1;PMS_P2;Temp;Humidity;BMP_temperature;BMP_pressure;BME280_temperature;BME280_humidity;BME280_pressure;Samples;Min_cycle;Max_cycle;Signal;HPM_P1;HPM_P2
2023/01/28 00:02:17;;;;;;;5.50;3.17;;;;;;;6.88;73.67;99925.75;4972517;28;20038;-81
2023/01/28 00:04:43;;;;;;;6.35;3.85;;;;;;;6.83;74.27;99933.25;4987750;28;20112;-80
2023/01/28 00:07:09;;;;;;;5.78;3.47;;;;;;;6.80;73.80;99925.47;4988733;28;20428;-79
2023/01/28 00:09:34;;;;;;;10.65;4.47;;;;;;;6.84;74.08;99924.25;4995057;28;20125;-80
2023/01/28 00:11:59;;;;;;;5.80;3.53;;;;;;;6.92;73.40;99932.53;4994000;28;20030;-80
2023/01/28 00:14:25;;;;;;;3.40;2.60;;;;;;;6.82;72.97;99927.03;4991486;28;20476;-80
2023/01/28 00:16:50;;;;;;;12.02;3.35;;;;;;;6.81;73.45;99930.72;4989857;28;20112;-79
2023/01/28 00:19:16;;;;;;;4.13;2.97;;;;;;;6.72;72.98;99941.25;4990445;28;20065;-80
2023/01/28 00:21:41;;;;;;;6.47;3.05;;;;;;;6.80;73.31;99944.16;4989575;28;20031;-80
2023/01/28 00:24:08;;;;;;;10.23;4.03;;;;;;;6.68;73.36;99935.28;4987977;28;20056;-79
2023/01/28 00:26:34;;;;;;;5.22;2.92;;;;;;;6.72;74.05;99943.91;4987455;28;20050;-79
2023/01/28 00:29:00;;;;;;;5.50;3.13;;;;;;;6.70;74.25;99948.50;4987885;28;20030;-79
2023/01/28 00:31:26;;;;;;;8.13;3.92;;;;;;;6.76;74.43;99953.41;5004160;28;20064;-81
2023/01/28 00:33:53;;;;;;;4.53;3.15;;;;;;;6.65;73.86;99948.00;5010001;28;20104;-78
2023/01/28 00:36:21;;;;;;;12.95;3.92;;;;;;;6.65;74.40;99945.34;5010030;28;20034;-79
2023/01/28 00:38:50;;;;;;;4.57;2.78;;;;;;;6.74;74.17;99950.84;5010088;28;20057;-80
2023/01/28 00:41:17;;;;;;;6.43;2.50;;;;;;;6.70;74.53;99943.16;5009819;28;20054;-78
2023/01/28 00:43:44;;;;;;;4.68;2.88;;;;;;;6.67;74.61;99927.38;5010191;28;20030;-80
2023/01/28 00:46:11;;;;;;;3.95;2.90;;;;;;;6.72;74.95;99943.91;5011337;28;20030;-81
2023/01/28 00:48:37;;;;;;;5.03;3.10;;;;;;;6.52;75.21;99940.94;5014362;28;20737;-78
2023/01/28 00:51:03;;;;;;;3.75;2.60;;;;;;;6.46;75.37;99941.41;5014217;28;20547;-78
2023/01/28 00:53:29;;;;;;;3.65;2.58;;;;;;;6.47;75.51;99942.25;5015009;28;20049;-78
2023/01/28 00:55:55;;;;;;;7.80;2.35;;;;;;;6.50;76.06;99947.38;5015891;28;20033;-80
2023/01/28 00:58:22;;;;;;;4.68;3.42;;;;;;;6.46;75.92;99946.75;5013883;28;20037;-80
2023/01/28 01:00:49;;;;;;;4.50;2.78;;;;;;;6.61;76.15;99959.88;5014064;28;20088;-79
2023/01/28 01:03:16;;;;;;;4.18;3.08;;;;;;;6.64;76.25;99967.66;5014444;28;20061;-79
2023/01/28 01:05:41;;;;;;;4.80;3.00;;;;;;;6.73;75.85;99959.00;5014496;28;20068;-78
2023/01/28 01:08:07;;;;;;;5.85;3.13;;;;;;;6.75;75.46;99962.38;5015601;28;20061;-79
2023/01/28 01:10:33;;;;;;;5.80;3.67;;;;;;;6.58;75.30;99953.81;5014535;28;20474;-80
2023/01/28 01:12:59;;;;;;;7.65;4.03;;;;;;;6.63;75.43;99969.53;5013907;28;20580;-79
2023/01/28 01:15:24;;;;;;;5.07;3.03;;;;;;;6.70;75.70;99967.22;5013553;28;20117;-79
2023/01/28 01:17:50;;;;;;;6.32;4.00;;;;;;;6.68;75.54;99970.00;5013980;28;20033;-79
2023/01/28 01:20:24;;;;;;;9.30;4.93;;;;;;;6.63;75.77;99963.31;5013445;28;20047;-79
2023/01/28 01:22:50;;;;;;;5.47;3.38;;;;;;;6.49;75.44;99973.22;5013084;28;20167;-79
2023/01/28 01:25:17;;;;;;;9.05;4.60;;;;;;;6.51;75.46;99976.59;5013231;28;20038;-78
2023/01/28 01:27:44;;;;;;;7.68;3.97;;;;;;;6.55;75.79;99978.09;5013002;28;20021;-79
2023/01/28 01:30:11;;;;;;;4.90;3.50;;;;;;;6.53;76.00;99969.34;5013337;28;20030;-80
2023/01/28 01:32:37;;;;;;;7.47;4.20;;;;;;;6.46;75.49;99989.47;5012992;28;20410;-80
2023/01/28 01:35:07;;;;;;;7.57;3.97;;;;;;;6.52;75.36;99989.00;5013190;28;20041;-80
2023/01/28 01:37:36;;;;;;;6.40;4.00;;;;;;;6.49;75.53;99983.91;5013095;28;20029;-79
2023/01/28 01:40:03;;;;;;;6.63;3.92;;;;;;;6.52;75.86;99999.69;5012577;28;20065;-79
2023/01/28 01:42:31;;;;;;;8.13;4.53;;;;;;;6.50;75.68;100001.63;5012755;28;20058;-81
2023/01/28 01:44:56;;;;;;;6.32;4.15;;;;;;;6.49;75.51;100005.28;5012691;28;20765;-81
2023/01/28 01:47:28;;;;;;;5.95;4.05;;;;;;;6.52;75.16;100010.38;5012802;28;20087;-82
2023/01/28 01:49:54;;;;;;;7.20;4.43;;;;;;;6.51;74.36;100003.31;5012921;28;20038;-80
2023/01/28 01:52:25;;;;;;;7.40;4.93;;;;;;;6.33;74.14;99999.34;5012713;28;20037;-79
2023/01/28 01:54:56;;;;;;;8.82;4.65;;;;;;;6.33;74.46;99993.19;5013324;28;20037;-79
2023/01/28 01:57:27;;;;;;;5.57;3.72;;;;;;;6.39;74.24;100009.59;5013996;28;20106;-81
2023/01/28 01:59:54;;;;;;;7.32;4.70;;;;;;;6.38;74.53;100012.38;5012807;28;20354;-79
2023/01/28 02:02:19;;;;;;;8.32;4.15;;;;;;;6.37;74.50;100011.53;5012514;28;20026;-79
2023/01/28 02:04:45;;;;;;;9.35;4.65;;;;;;;6.41;74.68;100023.69;5012805;28;20557;-78
2023/01/28 02:07:14;;;;;;;6.18;4.05;;;;;;;6.25;73.94;100022.25;5012423;28;20480;-81
2023/01/28 02:09:40;;;;;;;6.15;3.85;;;;;;;6.38;74.01;100029.25;5013133;28;20026;-80
2023/01/28 02:12:12;;;;;;;6.32;4.50;;;;;;;6.31;72.91;100030.66;5012769;28;20032;-79
2023/01/28 02:14:45;;;;;;;6.72;3.75;;;;;;;6.15;73.07;100027.41;5012451;28;20034;-79
2023/01/28 02:17:11;;;;;;;6.28;4.03;;;;;;;6.15;73.42;100038.09;5012572;28;20631;-79
2023/01/28 02:19:41;;;;;;;7.05;4.07;;;;;;;6.14;72.79;100039.06;5012439;28;20042;-78
2023/01/28 02:22:26;;;;;;;7.10;4.35;;;;;;;6.06;73.20;100051.25;5012241;28;20040;-79
2023/01/28 02:25:16;;;;;;;6.30;4.05;;;;;;;5.94;73.35;100051.16;4977862;28;20046;-78
2023/01/28 02:27:51;;;;;;;8.13;4.35;;;;;;;5.93;73.79;100052.13;5012177;28;20117;-78
2023/01/28 02:30:26;;;;;;;7.45;4.28;;;;;;;5.92;73.42;100049.56;5011900;28;20030;-80
2023/01/28 02:33:03;;;;;;;6.68;4.00;;;;;;;5.99;73.24;100051.69;5012516;28;20026;-80
2023/01/28 02:35:51;;;;;;;6.15;3.60;;;;;;;5.93;72.54;100059.28;5013649;28;20029;-79
2023/01/28 02:38:21;;;;;;;6.65;3.67;;;;;;;5.86;71.88;100052.69;5015690;28;20026;-79
2023/01/28 02:41:08;;;;;;;8.43;5.07;;;;;;;5.79;72.48;100065.56;5023449;28;20041;-80
2023/01/28 02:43:44;;;;;;;5.38;3.53;;;;;;;5.63;72.03;100069.41;5026368;28;20026;-80
2023/01/28 02:48:57;;;;;;;5.70;3.40;;;;;;;5.48;72.67;100082.84;5027651;28;20044;-79
2023/01/28 02:51:56;;;;;;;7.60;4.25;;;;;;;5.45;72.88;100079.53;5012929;28;20412;-79
2023/01/28 02:54:40;;;;;;;7.20;4.18;;;;;;;5.28;72.89;100071.88;5014357;28;20025;-78
2023/01/28 02:57:21;;;;;;;5.43;3.78;;;;;;;5.21;73.29;100082.09;5014432;28;20034;-79
2023/01/28 02:59:55;;;;;;;9.93;4.80;;;;;;;5.20;73.37;100088.38;5012956;28;20044;-79
2023/01/28 03:02:45;;;;;;;10.25;4.32;;;;;;;4.99;73.76;100087.16;5011263;28;20505;-79
2023/01/28 03:05:21;;;;;;;7.85;4.60;;;;;;;4.99;73.69;100089.81;5010128;28;20440;-79
2023/01/28 03:07:47;;;;;;;7.80;4.30;;;;;;;4.94;73.60;100094.59;5011008;28;20061;-79
2023/01/28 03:10:17;;;;;;;5.70;4.63;;;;;;;4.90;73.93;100093.09;5010081;28;20490;-79
2023/01/28 03:38:40;;;;;;;9.73;5.15;;;;;;;4.48;73.05;100106.56;5010541;28;20114;-79
2023/01/28 03:41:08;;;;;;;10.68;5.45;;;;;;;4.53;72.67;100115.09;5010409;28;20037;-78
2023/01/28 03:43:34;;;;;;;7.93;5.05;;;;;;;4.43;72.89;100111.34;5010368;28;20411;-79
2023/01/28 03:46:00;;;;;;;8.00;4.75;;;;;;;4.46;72.48;100113.81;5010771;28;20033;-78
2023/01/28 03:48:27;;;;;;;8.40;5.50;;;;;;;4.27;72.54;100104.34;5010174;28;20030;-78
2023/01/28 03:50:55;;;;;;;8.23;5.53;;;;;;;4.23;72.83;100118.78;5010055;28;20022;-79
2023/01/28 03:53:21;;;;;;;9.32;5.13;;;;;;;4.28;73.25;100115.84;5010412;28;20030;-79
2023/01/28 03:55:49;;;;;;;9.88;5.43;;;;;;;4.34;73.33;100110.13;5010505;28;20485;-79
2023/01/28 03:58:16;;;;;;;11.15;6.13;;;;;;;4.29;73.46;100113.06;5011046;28;20117;-78
2023/01/28 04:00:42;;;;;;;19.48;5.85;;;;;;;4.22;73.52;100111.75;5011668;28;20033;-78
2023/01/28 04:03:14;;;;;;;8.43;5.53;;;;;;;4.30;72.99;100132.56;5010517;28;20536;-80
2023/01/28 04:06:00;;;;;;;9.60;5.50;;;;;;;4.13;72.77;100117.66;5009965;28;20547;-79
2023/01/28 04:08:27;;;;;;;8.35;6.03;;;;;;;4.17;73.50;100128.97;5009800;28;20026;-79
2023/01/28 04:10:52;;;;;;;12.93;6.30;;;;;;;4.26;73.14;100139.88;5009809;28;20112;-78
2023/01/28 04:13:18;;;;;;;9.10;6.40;;;;;;;4.15;72.63;100138.84;5009743;28;20460;-78
2023/01/28 04:15:44;;;;;;;10.18;6.32;;;;;;;3.98;72.95;100118.63;5009971;28;20038;-80
2023/01/28 04:18:09;;;;;;;9.27;6.80;;;;;;;4.09;73.50;100140.09;5009838;28;20061;-80
2023/01/28 04:20:36;;;;;;;8.70;5.75;;;;;;;4.14;73.28;100134.47;5009234;28;20061;-79
2023/01/28 04:23:01;;;;;;;12.93;7.13;;;;;;;4.12;72.77;100131.06;5009974;28;20030;-78
2023/01/28 04:25:27;;;;;;;15.73;8.15;;;;;;;4.03;72.88;100140.50;5009684;28;20034;-78
2023/01/28 04:27:52;;;;;;;9.77;6.13;;;;;;;4.05;73.57;100135.91;5010138;28;20033;-78
2023/01/28 04:30:18;;;;;;;10.13;5.55;;;;;;;4.01;72.89;100125.53;5009777;28;20034;-79
2023/01/28 04:32:45;;;;;;;6.97;4.93;;;;;;;4.01;72.80;100134.38;5009557;28;20500;-80
2023/01/28 04:35:11;;;;;;;13.00;7.63;;;;;;;4.11;72.44;100140.00;5009396;28;20034;-80
2023/01/28 04:37:37;;;;;;;8.30;5.00;;;;;;;4.11;72.37;100145.31;5009736;28;20537;-79
2023/01/28 04:40:02;;;;;;;14.82;6.35;;;;;;;4.10;71.70;100151.56;5009866;28;20030;-79
2023/01/28 04:42:28;;;;;;;8.43;5.25;;;;;;;4.07;71.15;100144.66;5009773;28;20108;-78
2023/01/28 04:44:53;;;;;;;8.07;5.57;;;;;;;3.93;71.33;100136.69;5009686;28;20044;-76
2023/01/28 04:47:19;;;;;;;7.40;4.25;;;;;;;3.90;71.49;100142.19;5009410;28;20064;-77
2023/01/28 04:49:44;;;;;;;10.85;6.40;;;;;;;3.84;71.90;100154.06;5009310;28;20061;-77
2023/01/28 04:52:10;;;;;;;7.40;4.55;;;;;;;3.76;72.16;100144.84;5009232;28;20509;-77
2023/01/28 04:54:35;;;;;;;7.32;4.60;;;;;;;3.76;71.95;100147.50;5009590;28;20026;-77
2023/01/28 04:57:01;;;;;;;6.18;4.25;;;;;;;3.75;72.06;100141.34;5009299;28;20751;-77
2023/01/28 04:59:26;;;;;;;6.22;4.22;;;;;;;3.67;72.02;100134.78;5009605;28;20026;-77
2023/01/28 05:01:52;;;;;;;6.85;4.22;;;;;;;3.64;72.15;100134.97;5010492;28;20096;-79
2023/01/28 05:04:17;;;;;;;9.07;4.93;;;;;;;3.56;72.80;100147.84;5010013;28;20038;-80
2023/01/28 05:06:42;;;;;;;8.98;5.30;;;;;;;3.56;73.08;100126.56;5009928;28;20092;-78
2023/01/28 05:09:08;;;;;;;7.90;5.32;;;;;;;3.55;72.58;100127.50;5009386;28;20034;-77
2023/01/28 05:11:33;;;;;;;7.25;5.25;;;;;;;3.51;72.84;100157.91;4990185;28;20071;-78
2023/01/28 05:13:59;;;;;;;7.95;5.22;;;;;;;3.45;72.78;100160.94;4989793;28;20066;-77
2023/01/28 05:16:24;;;;;;;9.55;5.10;;;;;;;3.47;73.40;100180.31;4989955;28;20031;-78
2023/01/28 05:18:50;;;;;;;7.70;5.20;;;;;;;3.43;73.22;100165.47;4990006;28;20410;-80
2023/01/28 05:21:16;;;;;;;7.68;4.68;;;;;;;3.40;73.90;100179.81;4988806;28;20030;-80
2023/01/28 05:23:42;;;;;;;6.88;4.88;;;;;;;3.47;73.92;100186.47;4989481;28;20030;-80
2023/01/28 05:26:07;;;;;;;7.82;4.75;;;;;;;3.39;73.71;100187.88;4990045;28;20197;-79
2023/01/28 05:28:33;;;;;;;10.93;5.82;;;;;;;3.31;73.84;100185.66;5001175;28;20113;-81
2023/01/28 05:31:06;;;;;;;6.75;5.13;;;;;;;3.30;73.75;100206.06;5007841;28;20034;-79
2023/01/28 05:33:32;;;;;;;8.75;5.68;;;;;;;3.24;74.09;100179.84;5009997;28;20037;-80
2023/01/28 05:35:57;;;;;;;10.52;6.13;;;;;;;3.28;74.07;100199.97;5012547;28;20022;-79
2023/01/28 05:38:23;;;;;;;9.13;5.63;;;;;;;3.34;74.36;100192.59;5012380;28;20022;-78
2023/01/28 05:40:48;;;;;;;9.20;5.85;;;;;;;3.37;73.89;100189.75;5020200;28;20405;-79
2023/01/28 05:43:15;;;;;;;9.55;5.70;;;;;;;3.49;73.83;100210.28;5012071;28;20378;-78
2023/01/28 05:45:40;;;;;;;10.23;6.30;;;;;;;3.48;72.83;100213.91;5011720;28;20060;-80
2023/01/28 05:48:06;;;;;;;10.23;5.82;;;;;;;3.39;73.32;100206.50;5012187;28;20070;-79
2023/01/28 05:50:31;;;;;;;12.75;6.30;;;;;;;3.43;73.30;100211.50;5011895;28;20038;-76
2023/01/28 05:52:57;;;;;;;10.75;6.35;;;;;;;3.35;73.48;100232.38;5011538;28;20041;-78
2023/01/28 05:55:23;;;;;;;8.90;6.20;;;;;;;3.42;73.66;100225.78;5011783;28;20034;-78
2023/01/28 05:57:48;;;;;;;10.35;6.47;;;;;;;3.28;74.20;100218.59;5010347;28;20073;-78
2023/01/28 06:00:15;;;;;;;9.38;6.20;;;;;;;3.37;73.59;100227.81;5011651;28;20021;-79
2023/01/28 06:02:41;;;;;;;12.65;7.43;;;;;;;3.38;73.55;100234.00;5012677;28;20032;-81
2023/01/28 06:05:07;;;;;;;10.75;6.80;;;;;;;3.35;73.91;100228.88;5020063;28;20037;-81
2023/01/28 06:07:33;;;;;;;12.75;7.22;;;;;;;3.39;73.54;100238.38;5011807;28;20061;-81
2023/01/28 06:09:58;;;;;;;9.55;6.35;;;;;;;3.44;73.56;100244.28;5012176;28;20119;-81
2023/01/28 06:12:24;;;;;;;8.90;5.80;;;;;;;3.33;73.06;100233.41;5011364;28;20030;-81
2023/01/28 06:14:49;;;;;;;9.40;5.93;;;;;;;3.27;72.94;100248.75;5011868;28;20042;-81
2023/01/28 06:17:15;;;;;;;9.48;6.28;;;;;;;3.34;72.67;100264.34;5011622;28;20029;-80
2023/01/28 06:19:40;;;;;;;12.95;6.90;;;;;;;3.26;72.70;100257.69;5011202;28;20044;-80
2023/01/28 06:22:06;;;;;;;11.82;5.45;;;;;;;3.27;72.64;100259.38;5012016;28;20028;-86
2023/01/28 06:24:31;;;;;;;11.45;6.63;;;;;;;3.07;72.36;100241.06;5012983;28;20088;-89
2023/01/28 06:26:57;;;;;;;10.27;6.95;;;;;;;3.16;73.25;100245.88;5012998;28;20414;-87
2023/01/28 06:29:23;;;;;;;18.58;9.48;;;;;;;3.13;73.78;100261.97;5030689;28;20026;-86
2023/01/28 06:32:12;;;;;;;9.32;6.32;;;;;;;2.91;73.44;100232.25;5036843;28;20022;-88
2023/01/28 06:34:38;;;;;;;10.27;6.20;;;;;;;3.11;73.74;100261.22;5022293;28;20429;-88
2023/01/28 06:37:04;;;;;;;11.57;7.15;;;;;;;3.13;73.81;100277.06;5011920;28;20026;-86
2023/01/28 06:39:33;;;;;;;18.38;9.38;;;;;;;3.02;74.45;100251.13;5010857;28;20057;-87
2023/01/28 06:41:59;;;;;;;13.18;7.25;;;;;;;3.17;73.96;100281.28;5011380;28;20033;-92
2023/01/28 06:44:25;;;;;;;14.95;7.88;;;;;;;3.19;73.78;100274.91;4995253;28;20052;-88
2023/01/28 06:46:50;;;;;;;9.52;6.75;;;;;;;3.02;73.81;100252.91;4997497;28;20086;-85
2023/01/28 06:49:15;;;;;;;15.05;7.90;;;;;;;3.23;73.71;100272.94;5014389;28;20128;-86
2023/01/28 06:51:41;;;;;;;12.35;7.35;;;;;;;3.34;73.76;100290.91;5031560;28;20097;-88
2023/01/28 06:54:07;;;;;;;15.75;7.43;;;;;;;3.27;73.71;100259.38;5036157;28;20049;-89
2023/01/28 06:56:32;;;;;;;13.65;7.65;;;;;;;3.37;73.68;100270.34;5036209;28;20022;-87
2023/01/28 06:58:58;;;;;;;15.95;7.85;;;;;;;3.42;72.91;100262.97;5018237;28;20034;-86
2023/01/28 07:01:23;;;;;;;10.52;6.57;;;;;;;3.44;73.30;100262.88;5036085;28;20048;-85
2023/01/28 07:03:49;;;;;;;10.95;6.95;;;;;;;3.50;72.78;100270.50;5032295;28;20014;-87
2023/01/28 07:06:15;;;;;;;9.93;6.75;;;;;;;3.56;72.74;100283.44;5026458;28;20058;-87
2023/01/28 07:08:40;;;;;;;13.02;6.18;;;;;;;3.54;72.75;100272.03;5016218;28;20109;-87
2023/01/28 07:11:06;;;;;;;9.15;6.43;;;;;;;3.48;72.53;100272.41;5014680;28;20029;-89
2023/01/28 07:13:31;;;;;;;9.20;6.63;;;;;;;3.58;72.76;100279.72;5012456;28;20041;-85
2023/01/28 07:15:57;;;;;;;19.50;11.10;;;;;;;3.63;72.69;100290.13;5010883;28;20103;-80
2023/01/28 07:18:23;;;;;;;12.25;7.38;;;;;;;3.50;71.88;100292.63;5011685;28;20109;-81
2023/01/28 07:20:48;;;;;;;9.88;6.28;;;;;;;3.46;71.38;100300.84;5010208;28;20026;-79
2023/01/28 07:23:14;;;;;;;9.98;7.25;;;;;;;3.55;71.33;100301.19;5010009;28;20062;-81
2023/01/28 07:25:39;;;;;;;11.43;7.30;;;;;;;3.42;71.43;100291.38;5009421;28;20049;-79
2023/01/28 07:28:05;;;;;;;10.55;7.03;;;;;;;3.66;71.04;100308.56;5009551;28;20081;-81
2023/01/28 07:30:31;;;;;;;10.80;7.43;;;;;;;3.71;71.20;100311.78;5009868;28;20482;-80
2023/01/28 07:32:57;;;;;;;11.65;7.70;;;;;;;3.69;71.04;100303.91;5009289;28;20096;-79
2023/01/28 07:35:24;;;;;;;11.13;7.57;;;;;;;3.78;71.14;100313.16;5009332;28;20064;-79
2023/01/28 07:37:52;;;;;;;15.95;8.63;;;;;;;3.92;71.25;100321.16;5009514;28;20088;-79
2023/01/28 07:40:17;;;;;;;10.57;7.30;;;;;;;3.98;71.13;100318.16;5009324;28;20026;-81
2023/01/28 07:42:43;;;;;;;28.88;16.05;;;;;;;4.01;70.39;100315.31;5010283;28;20034;-81
2023/01/28 07:45:09;;;;;;;14.65;9.10;;;;;;;4.11;69.75;100313.81;5009585;28;20073;-80
2023/01/28 07:47:34;;;;;;;17.88;10.10;;;;;;;4.17;70.00;100321.44;5009410;28;20033;-80
2023/01/28 07:50:00;;;;;;;19.40;9.90;;;;;;;4.32;69.68;100323.16;5009356;28;20034;-81
2023/01/28 07:52:25;;;;;;;16.90;10.55;;;;;;;4.44;69.67;100323.34;5007685;28;20030;-81
2023/01/28 07:54:50;;;;;;;15.82;8.93;;;;;;;4.35;68.74;100309.66;5009660;28;20032;-81
2023/01/28 07:57:22;;;;;;;15.40;9.30;;;;;;;4.48;69.16;100322.22;5008994;28;20029;-80
2023/01/28 07:59:50;;;;;;;19.48;11.55;;;;;;;4.65;68.91;100330.03;5008022;28;20030;-82
2023/01/28 08:02:17;;;;;;;22.20;12.13;;;;;;;4.67;68.51;100341.47;5012976;28;20528;-79
2023/01/28 08:04:43;;;;;;;13.68;9.15;;;;;;;4.77;68.06;100331.97;5010935;28;20034;-81
2023/01/28 08:07:08;;;;;;;15.98;10.45;;;;;;;4.81;67.63;100336.13;5008988;28;20088;-81
2023/01/28 08:09:34;;;;;;;17.45;10.07;;;;;;;4.80;67.63;100339.78;5009593;28;20547;-80
2023/01/28 08:12:03;;;;;;;15.93;10.52;;;;;;;4.88;67.17;100345.47;5009851;28;20033;-83
2023/01/28 08:14:28;;;;;;;16.10;10.38;;;;;;;4.85;66.60;100351.84;5009257;28;20068;-78
2023/01/28 08:16:54;;;;;;;18.35;11.45;;;;;;;4.98;67.09;100349.28;5009219;28;20120;-79
2023/01/28 08:19:20;;;;;;;17.38;10.65;;;;;;;5.11;66.69;100368.84;5010588;28;20046;-80
2023/01/28 08:21:49;;;;;;;19.00;11.75;;;;;;;5.14;65.88;100358.00;5012522;28;20469;-80
2023/01/28 08:24:14;;;;;;;20.55;10.88;;;;;;;5.06;65.51;100376.28;5012256;28;20022;-82
2023/01/28 08:26:40;;;;;;;18.20;10.80;;;;;;;4.95;65.30;100384.94;5013905;28;20119;-80
2023/01/28 08:29:05;;;;;;;20.45;10.88;;;;;;;4.90;65.47;100391.50;4992342;28;20034;-80
2023/01/28 08:31:30;;;;;;;27.25;10.70;;;;;;;4.75;64.99;100388.00;4989546;28;20022;-80
2023/01/28 08:33:56;;;;;;;13.82;9.40;;;;;;;4.69;64.82;100382.16;4989379;28;20026;-81
2023/01/28 08:36:22;;;;;;;18.52;10.65;;;;;;;4.56;65.74;100392.72;4989193;28;20045;-80
2023/01/28 08:38:52;;;;;;;21.40;12.75;;;;;;;4.69;65.78;100398.16;4989315;28;20133;-80
2023/01/28 08:41:21;;;;;;;23.00;13.45;;;;;;;4.73;65.89;100410.34;4991602;28;20034;-80
2023/01/28 08:43:47;;;;;;;20.05;11.95;;;;;;;4.61;66.20;100400.44;4993022;28;20076;-82
2023/01/28 08:46:12;;;;;;;20.13;11.98;;;;;;;4.61;65.85;100400.44;4990115;28;20062;-82
2023/01/28 08:48:38;;;;;;;33.53;12.27;;;;;;;4.47;66.06;100397.72;4989829;28;20061;-82
2023/01/28 08:51:04;;;;;;;23.75;11.07;;;;;;;4.62;66.11;100394.13;4989007;28;20030;-81
2023/01/28 08:53:29;;;;;;;22.75;11.68;;;;;;;4.78;65.83;100392.25;4990473;28;20030;-81
2023/01/28 08:55:55;;;;;;;22.65;11.98;;;;;;;4.78;65.38;100382.47;4993863;28;20419;-81
2023/01/28 08:58:20;;;;;;;20.75;12.85;;;;;;;4.59;65.35;100391.66;4993666;28;20025;-82
2023/01/28 09:00:47;;;;;;;17.63;10.77;;;;;;;4.60;65.70;100390.72;4991583;28;20072;-81
2023/01/28 09:03:12;;;;;;;23.38;11.77;;;;;;;4.74;65.31;100401.41;4992460;28;20026;-80
2023/01/28 09:05:38;;;;;;;20.30;11.70;;;;;;;4.75;65.09;100392.44;4992786;28;20034;-83
2023/01/28 09:08:07;;;;;;;18.65;12.43;;;;;;;4.80;64.52;100382.38;4994183;28;20029;-81
2023/01/28 09:10:33;;;;;;;19.15;12.70;;;;;;;4.53;65.17;100392.03;4992562;28;20085;-82
2023/01/28 09:12:58;;;;;;;17.60;11.25;;;;;;;4.49;65.33;100374.56;4992935;28;20584;-79
2023/01/28 09:15:24;;;;;;;45.38;15.15;;;;;;;4.70;65.92;100389.22;4992968;28;20034;-80
2023/01/28 09:17:56;;;;;;;18.77;11.77;;;;;;;4.89;65.60;100384.50;4993280;28;20493;-81
2023/01/28 09:20:22;;;;;;;;;;;;;;;4.90;64.80;100386.19;4992765;28;20037;-81
2023/01/28 09:22:47;;;;;;;23.25;13.18;;;;;;;4.88;64.26;100390.75;4993207;28;19914;-80
2023/01/28 09:25:12;;;;;;;28.70;13.27;;;;;;;4.71;63.90;100393.63;4991299;28;20389;-81
2023/01/28 09:27:38;;;;;;;19.27;11.65;;;;;;;4.58;65.07;100387.31;4993469;28;20026;-78
2023/01/28 09:30:05;;;;;;;19.30;11.07;;;;;;;4.81;64.20;100408.06;4992857;28;20030;-76
2023/01/28 09:32:31;;;;;;;21.63;12.48;;;;;;;4.78;64.32;100417.09;4991963;28;20026;-77
2023/01/28 09:34:56;;;;;;;19.90;11.55;;;;;;;4.79;63.87;100416.16;4992313;28;20117;-76
2023/01/28 09:37:22;;;;;;;21.58;12.82;;;;;;;4.84;64.32;100422.06;4992280;28;20121;-79
2023/01/28 09:39:47;;;;;;;18.60;12.15;;;;;;;4.84;62.66;100423.84;4992455;28;20034;-77
2023/01/28 09:42:54;;;;;;;20.60;10.85;;;;;;;4.69;63.14;100420.31;4992595;28;20401;-79
2023/01/28 09:45:39;;;;;;;24.27;12.13;;;;;;;4.50;63.74;100432.16;4916731;29;20123;-81
2023/01/28 09:48:12;;;;;;;19.42;12.07;;;;;;;4.47;64.45;100427.00;4933041;29;20028;-82
2023/01/28 09:50:41;;;;;;;22.38;12.77;;;;;;;4.45;64.57;100421.81;4931660;29;20618;-80
2023/01/28 09:53:22;;;;;;;21.40;13.27;;;;;;;4.47;64.59;100421.69;4931503;29;20032;-79
2023/01/28 09:55:54;;;;;;;19.17;12.13;;;;;;;4.54;64.89;100417.72;4930930;29;20135;-84
2023/01/28 09:58:20;;;;;;;18.30;11.90;;;;;;;4.58;64.22;100411.28;4931501;29;20060;-81
2023/01/28 10:01:26;;;;;;;20.67;12.75;;;;;;;4.47;64.28;100397.72;4931660;29;20133;-78
2023/01/28 10:04:10;;;;;;;21.38;12.38;;;;;;;4.48;64.66;100396.78;4931208;29;20436;-79
2023/01/28 10:07:07;;;;;;;25.27;13.88;;;;;;;4.56;64.93;100391.84;4931646;29;20932;-78
2023/01/28 10:09:47;;;;;;;28.17;14.02;;;;;;;4.69;64.58;100382.16;4931089;29;20099;-80
2023/01/28 10:12:18;;;;;;;22.73;12.73;;;;;;;4.75;64.11;100371.13;4930583;29;20036;-80
2023/01/28 10:14:56;;;;;;;24.80;13.68;;;;;;;4.75;64.10;100366.66;4931101;29;20118;-81
2023/01/28 10:17:29;;;;;;;32.08;13.48;;;;;;;4.69;63.98;100356.41;4930520;29;20122;-79
2023/01/28 10:20:05;;;;;;;22.02;12.93;;;;;;;4.72;63.62;100366.00;4930271;29;20063;-81
2023/01/28 10:22:36;;;;;;;28.80;13.48;;;;;;;4.75;63.80;100368.47;4973291;28;20046;-77
2023/01/28 10:25:07;;;;;;;32.90;13.18;;;;;;;4.78;63.76;100365.63;4991032;28;20498;-78
2023/01/28 10:27:35;;;;;;;34.58;16.27;;;;;;;4.85;63.99;100366.97;4996669;28;20228;-78
2023/01/28 10:30:16;;;;;;;22.85;14.05;;;;;;;4.80;63.71;100369.91;5010915;28;20066;-78
2023/01/28 10:32:58;;;;;;;28.42;13.93;;;;;;;4.78;63.46;100360.28;5011138;28;20134;-78
2023/01/28 10:35:25;;;;;;;24.10;14.80;;;;;;;4.83;63.41;100359.06;5011647;28;20572;-78
2023/01/28 10:38:00;;;;;;;28.95;16.17;;;;;;;4.65;63.47;100343.34;5011516;28;20121;-79
2023/01/28 10:40:26;;;;;;;25.25;14.65;;;;;;;4.81;63.30;100357.44;5011987;28;20032;-79
2023/01/28 10:42:51;;;;;;;27.55;15.23;;;;;;;4.53;63.93;100370.72;5011738;28;20034;-81
2023/01/28 10:45:19;;;;;;;23.95;14.55;;;;;;;4.49;63.67;100385.19;5012226;28;20359;-77
2023/01/28 10:48:00;;;;;;;36.33;16.70;;;;;;;4.51;64.14;100397.47;5011441;28;20551;-78
2023/01/28 10:50:28;;;;;;;30.17;15.75;;;;;;;4.45;64.38;100402.31;5011526;28;20026;-79
2023/01/28 10:52:59;;;;;;;23.00;13.73;;;;;;;4.46;64.24;100388.91;5011626;28;20048;-78
2023/01/28 10:55:31;;;;;;;22.10;13.55;;;;;;;4.60;64.70;100404.03;5011629;28;20030;-78
2023/01/28 10:57:57;;;;;;;;;;;;;;;4.70;64.29;100405.22;5012070;28;20026;-78
2023/01/28 11:00:26;;;;;;;34.00;16.90;;;;;;;4.69;64.04;100403.47;5011872;28;19909;-79
2023/01/28 11:02:52;;;;;;;29.33;15.75;;;;;;;4.71;63.90;100398.94;5011362;28;20026;-80
2023/01/28 11:05:19;;;;;;;28.88;16.58;;;;;;;4.75;63.61;100408.44;5011990;28;20034;-79
2023/01/28 11:07:47;;;;;;;45.72;16.98;;;;;;;4.85;63.63;100401.59;5012656;28;20057;-79
2023/01/28 11:10:32;;;;;;;32.30;18.20;;;;;;;4.89;63.50;100406.63;5019317;28;20025;-78
2023/01/28 11:13:00;;;;;;;23.58;14.63;;;;;;;4.88;63.40;100415.59;5029833;28;20084;-77
2023/01/28 11:15:25;;;;;;;23.60;14.93;;;;;;;4.87;63.13;100418.34;5023191;28;20026;-77
2023/01/28 11:18:05;;;;;;;32.55;16.13;;;;;;;4.82;62.97;100415.13;5013475;28;20029;-78
2023/01/28 11:20:37;;;;;;;27.58;16.58;;;;;;;4.87;63.61;100424.53;5011817;28;20049;-79
2023/01/28 11:23:02;;;;;;;33.22;18.67;;;;;;;4.87;63.57;100423.66;5012426;28;20041;-78
2023/01/28 11:25:36;;;;;;;34.47;17.13;;;;;;;4.89;63.67;100419.13;5011089;28;20034;-78
2023/01/28 11:28:14;;;;;;;57.95;32.50;;;;;;;4.92;63.33;100424.25;5010857;28;20026;-78
2023/01/28 11:30:40;;;;;;;28.77;17.58;;;;;;;4.95;63.05;100418.75;5009957;28;20141;-77
2023/01/28 11:33:11;;;;;;;26.08;15.93;;;;;;;4.97;62.56;100421.31;5010681;28;20113;-78
2023/01/28 11:35:37;;;;;;;33.75;17.58;;;;;;;4.74;62.25;100422.72;5010663;28;20564;-78
2023/01/28 11:38:17;;;;;;;27.10;15.02;;;;;;;4.51;63.06;100415.25;5010176;28;20113;-77
2023/01/28 11:40:54;;;;;;;28.85;15.65;;;;;;;4.46;63.83;100418.19;4991732;28;20038;-80
2023/01/28 11:43:28;;;;;;;30.55;16.70;;;;;;;4.51;64.19;100420.56;5010695;28;20052;-78
2023/01/28 11:45:53;;;;;;;28.80;15.93;;;;;;;4.47;64.26;100422.56;5010647;28;20104;-78
2023/01/28 11:48:46;;;;;;;36.42;16.90;;;;;;;4.40;64.14;100421.22;5010123;28;20109;-78
2023/01/28 11:51:22;;;;;;;30.38;17.55;;;;;;;4.21;64.61;100432.09;5010231;28;20109;-78
2023/01/28 11:54:22;;;;;;;43.83;19.25;;;;;;;4.08;65.48;100433.75;5010270;28;20022;-78
2023/01/28 11:57:38;;;;;;;32.35;17.17;;;;;;;4.08;65.97;100433.75;5010151;28;20394;-77
2023/01/28 12:00:31;;;;;;;35.85;20.98;;;;;;;3.93;66.53;100420.47;4949624;29;20039;-78
2023/01/28 12:03:20;;;;;;;33.13;19.13;;;;;;;4.12;66.30;100429.97;4949253;29;20131;-79
2023/01/28 12:05:50;;;;;;;40.47;20.52;;;;;;;4.20;66.34;100434.81;4949456;29;20031;-80